sensor_id;sensor_type;location;lat;lon;timestamp;P1;durP1;ratioP1;P2;durP2;ratioP2
72517;SDS011;60540;51.178;6.738;2022-11-13T00:00:26;9.70;;;5.00;;
72517;SDS011;60540;51.178;6.738;2022-11-13T00:03:12;9.40;;;5.22;;
72517;SDS011;60540;51.178;6.738;2022-11-13T00:05:38;7.63;;;4.90;;
72517;SDS011;60540;51.178;6.738;2022-11-13T00:08:03;10.65;;;5.20;;
72517;SDS011;60540;51.178;6.738;2022-11-13T00:10:29;8.82;;;5.13;;
72517;SDS011;60540;51.178;6.738;2022-11-13T00:12:54;8.00;;;4.90;;
72517;SDS011;60540;51.178;6.738;2022-11-13T00:15:20;10.68;;;5.55;;
72517;SDS011;60540;51.178;6.738;2022-11-13T00:17:46;9.00;;;4.95;;
72517;SDS011;60540;51.178;6.738;2022-11-13T00:20:11;8.63;;;5.43;;
72517;SDS011;60540;51.178;6.738;2022-11-13T00:22:37;10.30;;;5.60;;
72517;SDS011;60540;51.178;6.738;2022-11-13T00:25:03;8.60;;;5.22;;
72517;SDS011;60540;51.178;6.738;2022-11-13T00:27:29;7.90;;;5.10;;
72517;SDS011;60540;51.178;6.738;2022-11-13T00:29:55;8.00;;;5.20;;
72517;SDS011;60540;51.178;6.738;2022-11-13T00:32:21;9.20;;;5.68;;
72517;SDS011;60540;51.178;6.738;2022-11-13T00:34:46;9.15;;;5.75;;
72517;SDS011;60540;51.178;6.738;2022-11-13T00:37:12;8.57;;;5.05;;
72517;SDS011;60540;51.178;6.738;2022-11-13T00:39:37;10.75;;;5.40;;
72517;SDS011;60540;51.178;6.738;2022-11-13T00:42:03;9.27;;;5.90;;
72517;SDS011;60540;51.178;6.738;2022-11-13T00:44:29;8.02;;;5.50;;
72517;SDS011;60540;51.178;6.738;2022-11-13T00:46:54;9.43;;;5.15;;
72517;SDS011;60540;51.178;6.738;2022-11-13T00:49:20;8.82;;;5.05;;
72517;SDS011;60540;51.178;6.738;2022-11-13T00:51:45;12.27;;;5.55;;
72517;SDS011;60540;51.178;6.738;2022-11-13T00:54:11;10.02;;;5.32;;
72517;SDS011;60540;51.178;6.738;2022-11-13T00:56:37;8.15;;;4.93;;
72517;SDS011;60540;51.178;6.738;2022-11-13T00:59:02;9.73;;;6.05;;
72517;SDS011;60540;51.178;6.738;2022-11-13T01:01:28;11.20;;;5.60;;
72517;SDS011;60540;51.178;6.738;2022-11-13T01:03:53;9.23;;;5.13;;
72517;SDS011;60540;51.178;6.738;2022-11-13T01:06:22;9.48;;;5.65;;
72517;SDS011;60540;51.178;6.738;2022-11-13T01:08:49;8.95;;;5.88;;
72517;SDS011;60540;51.178;6.738;2022-11-13T01:11:19;10.90;;;6.13;;
72517;SDS011;60540;51.178;6.738;2022-11-13T01:13:47;10.98;;;5.55;;
72517;SDS011;60540;51.178;6.738;2022-11-13T01:16:13;9.15;;;5.38;;
72517;SDS011;60540;51.178;6.738;2022-11-13T01:18:41;9.82;;;5.65;;
72517;SDS011;60540;51.178;6.738;2022-11-13T01:21:11;8.05;;;5.18;;
72517;SDS011;60540;51.178;6.738;2022-11-13T01:23:38;10.90;;;5.40;;
72517;SDS011;60540;51.178;6.738;2022-11-13T01:26:11;8.73;;;4.78;;
72517;SDS011;60540;51.178;6.738;2022-11-13T01:28:39;11.27;;;5.57;;
72517;SDS011;60540;51.178;6.738;2022-11-13T01:31:09;7.47;;;5.00;;
72517;SDS011;60540;51.178;6.738;2022-11-13T01:33:36;9.23;;;4.82;;
72517;SDS011;60540;51.178;6.738;2022-11-13T01:36:03;9.30;;;5.10;;
72517;SDS011;60540;51.178;6.738;2022-11-13T01:38:32;9.90;;;5.28;;
72517;SDS011;60540;51.178;6.738;2022-11-13T01:40:58;9.40;;;5.60;;
72517;SDS011;60540;51.178;6.738;2022-11-13T01:43:31;11.45;;;4.85;;
72517;SDS011;60540;51.178;6.738;2022-11-13T01:48:24;8.20;;;5.03;;
72517;SDS011;60540;51.178;6.738;2022-11-13T01:50:55;8.07;;;4.82;;
72517;SDS011;60540;51.178;6.738;2022-11-13T01:53:21;7.72;;;4.47;;
72517;SDS011;60540;51.178;6.738;2022-11-13T01:55:46;7.95;;;4.32;;
72517;SDS011;60540;51.178;6.738;2022-11-13T01:58:12;8.57;;;4.90;;
72517;SDS011;60540;51.178;6.738;2022-11-13T02:00:39;6.95;;;4.50;;
72517;SDS011;60540;51.178;6.738;2022-11-13T02:03:05;8.45;;;5.18;;
72517;SDS011;60540;51.178;6.738;2022-11-13T02:05:30;7.95;;;4.43;;
72517;SDS011;60540;51.178;6.738;2022-11-13T02:07:56;7.18;;;4.60;;
72517;SDS011;60540;51.178;6.738;2022-11-13T02:10:21;7.70;;;4.68;;
72517;SDS011;60540;51.178;6.738;2022-11-13T02:12:48;8.10;;;5.00;;
72517;SDS011;60540;51.178;6.738;2022-11-13T02:15:15;9.15;;;4.60;;
72517;SDS011;60540;51.178;6.738;2022-11-13T02:18:00;10.70;;;4.85;;
72517;SDS011;60540;51.178;6.738;2022-11-13T02:20:42;9.27;;;4.90;;
72517;SDS011;60540;51.178;6.738;2022-11-13T02:23:47;7.85;;;4.70;;
72517;SDS011;60540;51.178;6.738;2022-11-13T02:26:25;9.05;;;4.57;;
72517;SDS011;60540;51.178;6.738;2022-11-13T02:28:52;8.23;;;4.25;;
72517;SDS011;60540;51.178;6.738;2022-11-13T02:31:17;7.93;;;4.60;;
72517;SDS011;60540;51.178;6.738;2022-11-13T02:33:43;6.63;;;4.30;;
72517;SDS011;60540;51.178;6.738;2022-11-13T02:36:08;8.88;;;4.38;;
72517;SDS011;60540;51.178;6.738;2022-11-13T02:38:35;7.90;;;4.65;;
72517;SDS011;60540;51.178;6.738;2022-11-13T02:41:01;9.50;;;5.05;;
72517;SDS011;60540;51.178;6.738;2022-11-13T02:43:27;7.35;;;4.32;;
72517;SDS011;60540;51.178;6.738;2022-11-13T02:45:52;7.13;;;4.53;;
72517;SDS011;60540;51.178;6.738;2022-11-13T02:48:18;8.20;;;4.60;;
72517;SDS011;60540;51.178;6.738;2022-11-13T02:50:44;7.85;;;4.57;;
72517;SDS011;60540;51.178;6.738;2022-11-13T02:53:09;7.97;;;4.75;;
72517;SDS011;60540;51.178;6.738;2022-11-13T02:55:35;6.50;;;3.97;;
72517;SDS011;60540;51.178;6.738;2022-11-13T02:58:01;7.70;;;4.60;;
72517;SDS011;60540;51.178;6.738;2022-11-13T03:00:26;6.65;;;4.13;;
72517;SDS011;60540;51.178;6.738;2022-11-13T03:02:52;7.78;;;5.15;;
72517;SDS011;60540;51.178;6.738;2022-11-13T03:05:20;8.98;;;5.05;;
72517;SDS011;60540;51.178;6.738;2022-11-13T03:07:46;7.28;;;4.07;;
72517;SDS011;60540;51.178;6.738;2022-11-13T03:10:11;6.93;;;4.50;;
72517;SDS011;60540;51.178;6.738;2022-11-13T03:12:37;8.25;;;4.68;;
72517;SDS011;60540;51.178;6.738;2022-11-13T03:15:04;9.50;;;4.72;;
72517;SDS011;60540;51.178;6.738;2022-11-13T03:17:30;9.15;;;4.93;;
72517;SDS011;60540;51.178;6.738;2022-11-13T03:19:56;7.50;;;4.15;;
72517;SDS011;60540;51.178;6.738;2022-11-13T03:22:22;5.35;;;4.05;;
72517;SDS011;60540;51.178;6.738;2022-11-13T03:24:47;7.95;;;4.38;;
72517;SDS011;60540;51.178;6.738;2022-11-13T03:27:13;8.18;;;5.25;;
72517;SDS011;60540;51.178;6.738;2022-11-13T03:29:38;8.38;;;4.57;;
72517;SDS011;60540;51.178;6.738;2022-11-13T03:32:04;7.13;;;4.68;;
72517;SDS011;60540;51.178;6.738;2022-11-13T03:34:30;9.05;;;5.07;;
72517;SDS011;60540;51.178;6.738;2022-11-13T03:36:56;7.70;;;4.63;;
72517;SDS011;60540;51.178;6.738;2022-11-13T03:39:22;6.90;;;4.40;;
72517;SDS011;60540;51.178;6.738;2022-11-13T03:41:47;7.90;;;4.90;;
72517;SDS011;60540;51.178;6.738;2022-11-13T03:44:13;7.15;;;4.68;;
72517;SDS011;60540;51.178;6.738;2022-11-13T03:46:38;8.98;;;4.60;;
72517;SDS011;60540;51.178;6.738;2022-11-13T03:49:04;8.52;;;4.85;;
72517;SDS011;60540;51.178;6.738;2022-11-13T03:51:29;9.82;;;5.15;;
72517;SDS011;60540;51.178;6.738;2022-11-13T03:53:55;7.85;;;4.55;;
72517;SDS011;60540;51.178;6.738;2022-11-13T03:56:21;8.25;;;5.00;;
72517;SDS011;60540;51.178;6.738;2022-11-13T03:58:46;8.32;;;4.85;;
72517;SDS011;60540;51.178;6.738;2022-11-13T04:01:12;7.25;;;4.78;;
72517;SDS011;60540;51.178;6.738;2022-11-13T04:03:37;8.52;;;4.88;;
72517;SDS011;60540;51.178;6.738;2022-11-13T04:06:03;9.75;;;5.18;;
72517;SDS011;60540;51.178;6.738;2022-11-13T04:08:28;9.10;;;5.28;;
72517;SDS011;60540;51.178;6.738;2022-11-13T04:10:54;9.00;;;5.50;;
72517;SDS011;60540;51.178;6.738;2022-11-13T04:13:20;9.82;;;5.55;;
72517;SDS011;60540;51.178;6.738;2022-11-13T04:15:46;10.32;;;5.40;;
72517;SDS011;60540;51.178;6.738;2022-11-13T04:18:12;8.82;;;4.85;;
72517;SDS011;60540;51.178;6.738;2022-11-13T04:20:37;9.00;;;5.07;;
72517;SDS011;60540;51.178;6.738;2022-11-13T04:23:03;7.65;;;4.97;;
72517;SDS011;60540;51.178;6.738;2022-11-13T04:25:32;9.23;;;5.22;;
72517;SDS011;60540;51.178;6.738;2022-11-13T04:27:57;9.05;;;5.05;;
72517;SDS011;60540;51.178;6.738;2022-11-13T04:30:23;8.45;;;5.35;;
72517;SDS011;60540;51.178;6.738;2022-11-13T04:32:49;9.18;;;5.28;;
72517;SDS011;60540;51.178;6.738;2022-11-13T04:35:14;9.13;;;5.22;;
72517;SDS011;60540;51.178;6.738;2022-11-13T04:37:40;10.13;;;5.05;;
72517;SDS011;60540;51.178;6.738;2022-11-13T04:40:05;9.70;;;5.32;;
72517;SDS011;60540;51.178;6.738;2022-11-13T04:42:31;9.15;;;5.43;;
72517;SDS011;60540;51.178;6.738;2022-11-13T04:45:16;8.60;;;5.40;;
72517;SDS011;60540;51.178;6.738;2022-11-13T04:50:08;8.40;;;4.70;;
72517;SDS011;60540;51.178;6.738;2022-11-13T04:52:34;8.70;;;5.32;;
72517;SDS011;60540;51.178;6.738;2022-11-13T04:54:59;8.77;;;5.00;;
72517;SDS011;60540;51.178;6.738;2022-11-13T04:57:25;8.82;;;4.85;;
72517;SDS011;60540;51.178;6.738;2022-11-13T04:59:50;10.02;;;5.00;;
72517;SDS011;60540;51.178;6.738;2022-11-13T05:02:16;8.70;;;5.10;;
72517;SDS011;60540;51.178;6.738;2022-11-13T05:04:41;8.27;;;4.57;;
72517;SDS011;60540;51.178;6.738;2022-11-13T05:07:07;8.63;;;4.60;;
72517;SDS011;60540;51.178;6.738;2022-11-13T05:09:33;7.63;;;5.00;;
72517;SDS011;60540;51.178;6.738;2022-11-13T05:11:58;10.52;;;4.32;;
72517;SDS011;60540;51.178;6.738;2022-11-13T05:14:24;7.57;;;4.53;;
72517;SDS011;60540;51.178;6.738;2022-11-13T05:16:49;7.20;;;4.43;;
72517;SDS011;60540;51.178;6.738;2022-11-13T05:19:16;7.72;;;4.63;;
72517;SDS011;60540;51.178;6.738;2022-11-13T05:21:41;8.65;;;4.63;;
72517;SDS011;60540;51.178;6.738;2022-11-13T05:24:09;7.38;;;4.45;;
72517;SDS011;60540;51.178;6.738;2022-11-13T05:26:36;8.43;;;4.70;;
72517;SDS011;60540;51.178;6.738;2022-11-13T05:29:02;8.25;;;4.70;;
72517;SDS011;60540;51.178;6.738;2022-11-13T05:31:28;7.25;;;4.38;;
72517;SDS011;60540;51.178;6.738;2022-11-13T05:33:54;6.53;;;4.10;;
72517;SDS011;60540;51.178;6.738;2022-11-13T05:36:20;9.18;;;5.10;;
72517;SDS011;60540;51.178;6.738;2022-11-13T05:38:46;8.02;;;4.80;;
72517;SDS011;60540;51.178;6.738;2022-11-13T05:41:17;7.85;;;4.55;;
72517;SDS011;60540;51.178;6.738;2022-11-13T05:43:44;8.05;;;4.53;;
72517;SDS011;60540;51.178;6.738;2022-11-13T05:48:37;8.15;;;4.22;;
72517;SDS011;60540;51.178;6.738;2022-11-13T05:53:30;7.75;;;5.13;;
72517;SDS011;60540;51.178;6.738;2022-11-13T05:56:09;6.60;;;4.18;;
72517;SDS011;60540;51.178;6.738;2022-11-13T05:58:37;8.63;;;4.50;;
72517;SDS011;60540;51.178;6.738;2022-11-13T06:01:07;7.40;;;4.63;;
72517;SDS011;60540;51.178;6.738;2022-11-13T06:03:40;7.60;;;4.70;;
72517;SDS011;60540;51.178;6.738;2022-11-13T06:06:07;6.80;;;4.03;;
72517;SDS011;60540;51.178;6.738;2022-11-13T06:08:33;8.02;;;4.35;;
72517;SDS011;60540;51.178;6.738;2022-11-13T06:11:00;8.57;;;4.75;;
72517;SDS011;60540;51.178;6.738;2022-11-13T06:13:26;7.38;;;4.38;;
72517;SDS011;60540;51.178;6.738;2022-11-13T06:15:52;7.68;;;4.25;;
72517;SDS011;60540;51.178;6.738;2022-11-13T06:18:22;8.35;;;4.88;;
72517;SDS011;60540;51.178;6.738;2022-11-13T06:20:48;6.60;;;4.45;;
72517;SDS011;60540;51.178;6.738;2022-11-13T06:23:13;8.98;;;4.82;;
72517;SDS011;60540;51.178;6.738;2022-11-13T06:25:39;7.18;;;4.30;;
72517;SDS011;60540;51.178;6.738;2022-11-13T06:28:04;9.27;;;4.90;;
72517;SDS011;60540;51.178;6.738;2022-11-13T06:30:30;7.78;;;4.10;;
72517;SDS011;60540;51.178;6.738;2022-11-13T06:32:56;10.35;;;5.05;;
72517;SDS011;60540;51.178;6.738;2022-11-13T06:35:21;7.45;;;4.30;;
72517;SDS011;60540;51.178;6.738;2022-11-13T06:37:46;8.70;;;4.28;;
72517;SDS011;60540;51.178;6.738;2022-11-13T06:40:12;9.85;;;4.90;;
72517;SDS011;60540;51.178;6.738;2022-11-13T06:42:38;6.80;;;3.90;;
72517;SDS011;60540;51.178;6.738;2022-11-13T06:45:04;7.15;;;4.45;;
72517;SDS011;60540;51.178;6.738;2022-11-13T06:47:30;7.45;;;4.30;;
72517;SDS011;60540;51.178;6.738;2022-11-13T06:49:56;7.63;;;4.43;;
72517;SDS011;60540;51.178;6.738;2022-11-13T06:52:21;7.78;;;4.60;;
72517;SDS011;60540;51.178;6.738;2022-11-13T06:54:47;8.15;;;4.25;;
72517;SDS011;60540;51.178;6.738;2022-11-13T06:57:13;8.23;;;4.28;;
72517;SDS011;60540;51.178;6.738;2022-11-13T06:59:38;7.40;;;4.05;;
72517;SDS011;60540;51.178;6.738;2022-11-13T07:02:04;8.88;;;3.70;;
72517;SDS011;60540;51.178;6.738;2022-11-13T07:04:30;7.55;;;3.90;;
72517;SDS011;60540;51.178;6.738;2022-11-13T07:06:55;7.53;;;4.15;;
72517;SDS011;60540;51.178;6.738;2022-11-13T07:09:21;8.38;;;4.78;;
72517;SDS011;60540;51.178;6.738;2022-11-13T07:11:46;6.18;;;4.03;;
72517;SDS011;60540;51.178;6.738;2022-11-13T07:14:12;8.35;;;4.50;;
72517;SDS011;60540;51.178;6.738;2022-11-13T07:16:38;8.13;;;4.22;;
72517;SDS011;60540;51.178;6.738;2022-11-13T07:19:03;6.88;;;3.80;;
72517;SDS011;60540;51.178;6.738;2022-11-13T07:21:29;7.15;;;4.53;;
72517;SDS011;60540;51.178;6.738;2022-11-13T07:23:55;8.68;;;4.35;;
72517;SDS011;60540;51.178;6.738;2022-11-13T07:26:21;8.80;;;4.40;;
72517;SDS011;60540;51.178;6.738;2022-11-13T07:28:47;8.88;;;4.68;;
72517;SDS011;60540;51.178;6.738;2022-11-13T07:31:13;6.55;;;4.25;;
72517;SDS011;60540;51.178;6.738;2022-11-13T07:33:40;10.20;;;5.45;;
72517;SDS011;60540;51.178;6.738;2022-11-13T07:36:06;7.32;;;3.95;;
72517;SDS011;60540;51.178;6.738;2022-11-13T07:38:32;7.70;;;4.60;;
72517;SDS011;60540;51.178;6.738;2022-11-13T07:40:58;8.38;;;4.93;;
72517;SDS011;60540;51.178;6.738;2022-11-13T07:43:24;8.80;;;4.45;;
72517;SDS011;60540;51.178;6.738;2022-11-13T07:45:49;7.25;;;4.15;;
72517;SDS011;60540;51.178;6.738;2022-11-13T07:48:19;7.10;;;4.53;;
72517;SDS011;60540;51.178;6.738;2022-11-13T07:50:46;8.10;;;5.00;;
72517;SDS011;60540;51.178;6.738;2022-11-13T07:53:12;8.18;;;4.35;;
72517;SDS011;60540;51.178;6.738;2022-11-13T07:55:37;8.32;;;4.53;;
72517;SDS011;60540;51.178;6.738;2022-11-13T07:58:03;7.05;;;4.32;;
72517;SDS011;60540;51.178;6.738;2022-11-13T08:00:31;7.40;;;4.97;;
72517;SDS011;60540;51.178;6.738;2022-11-13T08:02:58;8.45;;;4.35;;
72517;SDS011;60540;51.178;6.738;2022-11-13T08:05:29;6.55;;;3.97;;
72517;SDS011;60540;51.178;6.738;2022-11-13T08:07:55;7.28;;;4.32;;
72517;SDS011;60540;51.178;6.738;2022-11-13T08:10:21;7.22;;;4.05;;
72517;SDS011;60540;51.178;6.738;2022-11-13T08:12:46;6.60;;;3.97;;
72517;SDS011;60540;51.178;6.738;2022-11-13T08:15:12;8.35;;;4.13;;
72517;SDS011;60540;51.178;6.738;2022-11-13T08:17:38;7.35;;;4.35;;
72517;SDS011;60540;51.178;6.738;2022-11-13T08:20:04;6.90;;;4.00;;
72517;SDS011;60540;51.178;6.738;2022-11-13T08:22:31;5.75;;;3.63;;
72517;SDS011;60540;51.178;6.738;2022-11-13T08:24:56;8.50;;;4.10;;
72517;SDS011;60540;51.178;6.738;2022-11-13T08:27:22;7.28;;;3.88;;
72517;SDS011;60540;51.178;6.738;2022-11-13T08:29:48;6.00;;;3.42;;
72517;SDS011;60540;51.178;6.738;2022-11-13T08:32:15;6.22;;;3.67;;
72517;SDS011;60540;51.178;6.738;2022-11-13T08:34:41;9.10;;;3.85;;
72517;SDS011;60540;51.178;6.738;2022-11-13T08:37:07;6.13;;;3.33;;
72517;SDS011;60540;51.178;6.738;2022-11-13T08:39:32;6.00;;;3.50;;
72517;SDS011;60540;51.178;6.738;2022-11-13T08:42:00;6.25;;;3.55;;
72517;SDS011;60540;51.178;6.738;2022-11-13T08:44:26;6.25;;;3.20;;
72517;SDS011;60540;51.178;6.738;2022-11-13T08:46:52;6.35;;;3.15;;
72517;SDS011;60540;51.178;6.738;2022-11-13T08:49:17;5.07;;;2.95;;
72517;SDS011;60540;51.178;6.738;2022-11-13T08:51:43;5.47;;;3.20;;
72517;SDS011;60540;51.178;6.738;2022-11-13T08:54:08;6.68;;;3.20;;
72517;SDS011;60540;51.178;6.738;2022-11-13T08:56:34;7.38;;;3.65;;
72517;SDS011;60540;51.178;6.738;2022-11-13T08:59:00;6.22;;;3.45;;
72517;SDS011;60540;51.178;6.738;2022-11-13T09:01:25;7.15;;;3.63;;
72517;SDS011;60540;51.178;6.738;2022-11-13T09:03:51;5.85;;;3.35;;
72517;SDS011;60540;51.178;6.738;2022-11-13T09:06:16;5.57;;;3.00;;
72517;SDS011;60540;51.178;6.738;2022-11-13T09:08:42;4.90;;;3.10;;
72517;SDS011;60540;51.178;6.738;2022-11-13T09:11:07;6.78;;;3.15;;
72517;SDS011;60540;51.178;6.738;2022-11-13T09:13:33;4.72;;;2.92;;
72517;SDS011;60540;51.178;6.738;2022-11-13T09:15:59;5.45;;;3.15;;
72517;SDS011;60540;51.178;6.738;2022-11-13T09:18:26;6.00;;;3.20;;
72517;SDS011;60540;51.178;6.738;2022-11-13T09:20:53;5.57;;;3.00;;
72517;SDS011;60540;51.178;6.738;2022-11-13T09:23:19;6.28;;;3.50;;
72517;SDS011;60540;51.178;6.738;2022-11-13T09:25:45;6.55;;;3.55;;
72517;SDS011;60540;51.178;6.738;2022-11-13T09:28:11;5.57;;;3.67;;
72517;SDS011;60540;51.178;6.738;2022-11-13T09:30:37;7.45;;;3.17;;
72517;SDS011;60540;51.178;6.738;2022-11-13T09:33:04;4.65;;;2.97;;
72517;SDS011;60540;51.178;6.738;2022-11-13T09:35:30;4.45;;;2.55;;
72517;SDS011;60540;51.178;6.738;2022-11-13T09:38:03;4.63;;;2.70;;
72517;SDS011;60540;51.178;6.738;2022-11-13T09:40:32;5.22;;;2.85;;
72517;SDS011;60540;51.178;6.738;2022-11-13T09:43:01;5.45;;;2.85;;
72517;SDS011;60540;51.178;6.738;2022-11-13T09:45:27;5.57;;;2.40;;
72517;SDS011;60540;51.178;6.738;2022-11-13T09:47:54;5.60;;;2.72;;
72517;SDS011;60540;51.178;6.738;2022-11-13T09:50:45;4.03;;;2.88;;
72517;SDS011;60540;51.178;6.738;2022-11-13T09:53:11;5.35;;;2.83;;
72517;SDS011;60540;51.178;6.738;2022-11-13T09:58:10;5.88;;;3.00;;
72517;SDS011;60540;51.178;6.738;2022-11-13T10:00:43;5.43;;;3.25;;
72517;SDS011;60540;51.178;6.738;2022-11-13T10:03:24;6.05;;;3.50;;
72517;SDS011;60540;51.178;6.738;2022-11-13T10:08:35;6.10;;;2.80;;
72517;SDS011;60540;51.178;6.738;2022-11-13T10:11:14;7.63;;;3.75;;
72517;SDS011;60540;51.178;6.738;2022-11-13T10:13:46;6.22;;;3.28;;
72517;SDS011;60540;51.178;6.738;2022-11-13T10:19:13;6.57;;;3.80;;
72517;SDS011;60540;51.178;6.738;2022-11-13T10:21:47;6.30;;;3.25;;
72517;SDS011;60540;51.178;6.738;2022-11-13T10:24:23;6.60;;;3.25;;
72517;SDS011;60540;51.178;6.738;2022-11-13T10:26:52;5.05;;;3.25;;
72517;SDS011;60540;51.178;6.738;2022-11-13T10:29:19;7.75;;;3.67;;
72517;SDS011;60540;51.178;6.738;2022-11-13T10:31:46;6.32;;;3.30;;
72517;SDS011;60540;51.178;6.738;2022-11-13T10:34:13;5.68;;;3.08;;
72517;SDS011;60540;51.178;6.738;2022-11-13T10:36:50;5.82;;;3.00;;
72517;SDS011;60540;51.178;6.738;2022-11-13T10:39:22;5.88;;;3.17;;
72517;SDS011;60540;51.178;6.738;2022-11-13T10:41:49;5.32;;;3.08;;
72517;SDS011;60540;51.178;6.738;2022-11-13T10:44:29;5.25;;;3.22;;
72517;SDS011;60540;51.178;6.738;2022-11-13T10:49:30;5.05;;;3.30;;
72517;SDS011;60540;51.178;6.738;2022-11-13T10:51:57;5.45;;;2.83;;
72517;SDS011;60540;51.178;6.738;2022-11-13T10:54:29;4.70;;;3.10;;
72517;SDS011;60540;51.178;6.738;2022-11-13T10:57:02;6.93;;;3.67;;
72517;SDS011;60540;51.178;6.738;2022-11-13T10:59:39;5.75;;;3.28;;
72517;SDS011;60540;51.178;6.738;2022-11-13T11:02:20;7.05;;;3.47;;
72517;SDS011;60540;51.178;6.738;2022-11-13T11:04:47;5.53;;;3.30;;
72517;SDS011;60540;51.178;6.738;2022-11-13T11:07:16;6.03;;;3.13;;
72517;SDS011;60540;51.178;6.738;2022-11-13T11:09:44;5.28;;;3.00;;
72517;SDS011;60540;51.178;6.738;2022-11-13T11:12:14;5.80;;;3.03;;
72517;SDS011;60540;51.178;6.738;2022-11-13T11:14:57;4.88;;;3.03;;
72517;SDS011;60540;51.178;6.738;2022-11-13T11:22:50;5.32;;;2.47;;
72517;SDS011;60540;51.178;6.738;2022-11-13T11:25:23;4.35;;;2.40;;
72517;SDS011;60540;51.178;6.738;2022-11-13T11:30:49;5.18;;;2.33;;
72517;SDS011;60540;51.178;6.738;2022-11-13T11:36:12;4.55;;;2.55;;
72517;SDS011;60540;51.178;6.738;2022-11-13T11:38:50;4.20;;;2.25;;
72517;SDS011;60540;51.178;6.738;2022-11-13T11:41:44;4.78;;;2.28;;
72517;SDS011;60540;51.178;6.738;2022-11-13T11:44:17;4.13;;;2.00;;
72517;SDS011;60540;51.178;6.738;2022-11-13T11:46:46;5.25;;;1.90;;
72517;SDS011;60540;51.178;6.738;2022-11-13T11:49:12;2.67;;;1.60;;
72517;SDS011;60540;51.178;6.738;2022-11-13T11:57:19;3.55;;;1.60;;
72517;SDS011;60540;51.178;6.738;2022-11-13T12:06:03;3.30;;;1.77;;
72517;SDS011;60540;51.178;6.738;2022-11-13T12:08:35;3.40;;;1.63;;
72517;SDS011;60540;51.178;6.738;2022-11-13T12:11:10;4.35;;;1.63;;
72517;SDS011;60540;51.178;6.738;2022-11-13T12:13:43;5.10;;;1.90;;
72517;SDS011;60540;51.178;6.738;2022-11-13T12:16:36;4.63;;;2.10;;
72517;SDS011;60540;51.178;6.738;2022-11-13T12:19:10;4.40;;;1.92;;
72517;SDS011;60540;51.178;6.738;2022-11-13T12:22:15;3.90;;;1.80;;
72517;SDS011;60540;51.178;6.738;2022-11-13T12:24:56;4.18;;;1.85;;
72517;SDS011;60540;51.178;6.738;2022-11-13T12:27:42;3.80;;;1.65;;
72517;SDS011;60540;51.178;6.738;2022-11-13T12:35:51;4.85;;;1.90;;
72517;SDS011;60540;51.178;6.738;2022-11-13T12:38:31;3.65;;;1.70;;
72517;SDS011;60540;51.178;6.738;2022-11-13T12:41:11;3.80;;;1.77;;
72517;SDS011;60540;51.178;6.738;2022-11-13T12:46:38;3.38;;;1.52;;
72517;SDS011;60540;51.178;6.738;2022-11-13T12:49:15;4.30;;;2.15;;
72517;SDS011;60540;51.178;6.738;2022-11-13T12:54:26;3.25;;;1.70;;
72517;SDS011;60540;51.178;6.738;2022-11-13T12:57:14;4.43;;;2.00;;
72517;SDS011;60540;51.178;6.738;2022-11-13T12:59:42;3.40;;;1.73;;
72517;SDS011;60540;51.178;6.738;2022-11-13T13:02:24;4.03;;;1.55;;
72517;SDS011;60540;51.178;6.738;2022-11-13T13:07:57;4.30;;;1.85;;
72517;SDS011;60540;51.178;6.738;2022-11-13T13:10:35;4.72;;;2.20;;
72517;SDS011;60540;51.178;6.738;2022-11-13T13:16:00;3.45;;;1.67;;
72517;SDS011;60540;51.178;6.738;2022-11-13T13:18:34;5.47;;;2.30;;
72517;SDS011;60540;51.178;6.738;2022-11-13T13:21:03;3.50;;;1.90;;
72517;SDS011;60540;51.178;6.738;2022-11-13T13:23:35;3.80;;;1.80;;
72517;SDS011;60540;51.178;6.738;2022-11-13T13:28:43;4.72;;;1.92;;
72517;SDS011;60540;51.178;6.738;2022-11-13T13:31:19;3.60;;;1.80;;
72517;SDS011;60540;51.178;6.738;2022-11-13T13:39:13;4.25;;;2.58;;
72517;SDS011;60540;51.178;6.738;2022-11-13T13:41:52;3.88;;;1.90;;
72517;SDS011;60540;51.178;6.738;2022-11-13T13:47:10;3.97;;;2.00;;
72517;SDS011;60540;51.178;6.738;2022-11-13T13:49:42;3.20;;;1.65;;
72517;SDS011;60540;51.178;6.738;2022-11-13T13:52:12;4.70;;;2.10;;
72517;SDS011;60540;51.178;6.738;2022-11-13T13:54:39;3.88;;;1.83;;
72517;SDS011;60540;51.178;6.738;2022-11-13T13:57:08;4.05;;;1.80;;
72517;SDS011;60540;51.178;6.738;2022-11-13T13:59:36;3.40;;;1.58;;
72517;SDS011;60540;51.178;6.738;2022-11-13T14:02:03;3.28;;;1.77;;
72517;SDS011;60540;51.178;6.738;2022-11-13T14:04:41;3.20;;;1.70;;
72517;SDS011;60540;51.178;6.738;2022-11-13T14:07:23;3.85;;;2.15;;
72517;SDS011;60540;51.178;6.738;2022-11-13T14:10:03;4.85;;;3.00;;
72517;SDS011;60540;51.178;6.738;2022-11-13T14:12:30;5.43;;;2.78;;
72517;SDS011;60540;51.178;6.738;2022-11-13T14:14:56;3.78;;;2.28;;
72517;SDS011;60540;51.178;6.738;2022-11-13T14:17:22;4.38;;;2.20;;
72517;SDS011;60540;51.178;6.738;2022-11-13T14:19:49;5.35;;;2.17;;
72517;SDS011;60540;51.178;6.738;2022-11-13T14:22:16;4.47;;;2.13;;
72517;SDS011;60540;51.178;6.738;2022-11-13T14:24:47;4.30;;;2.47;;
72517;SDS011;60540;51.178;6.738;2022-11-13T14:27:22;4.78;;;2.53;;
72517;SDS011;60540;51.178;6.738;2022-11-13T14:29:59;5.32;;;2.10;;
72517;SDS011;60540;51.178;6.738;2022-11-13T14:32:30;5.78;;;1.95;;
72517;SDS011;60540;51.178;6.738;2022-11-13T14:34:58;3.58;;;2.20;;
72517;SDS011;60540;51.178;6.738;2022-11-13T14:37:37;4.22;;;2.10;;
72517;SDS011;60540;51.178;6.738;2022-11-13T14:40:09;4.03;;;2.25;;
72517;SDS011;60540;51.178;6.738;2022-11-13T14:42:43;3.53;;;1.90;;
72517;SDS011;60540;51.178;6.738;2022-11-13T14:45:15;7.43;;;2.58;;
72517;SDS011;60540;51.178;6.738;2022-11-13T14:47:42;4.20;;;2.20;;
72517;SDS011;60540;51.178;6.738;2022-11-13T14:50:18;4.72;;;2.45;;
72517;SDS011;60540;51.178;6.738;2022-11-13T14:52:54;4.20;;;2.38;;
72517;SDS011;60540;51.178;6.738;2022-11-13T14:55:49;5.18;;;2.22;;
72517;SDS011;60540;51.178;6.738;2022-11-13T14:58:25;7.25;;;2.10;;
72517;SDS011;60540;51.178;6.738;2022-11-13T15:01:03;4.30;;;2.00;;
72517;SDS011;60540;51.178;6.738;2022-11-13T15:03:40;6.82;;;2.30;;
72517;SDS011;60540;51.178;6.738;2022-11-13T15:06:17;7.65;;;4.07;;
72517;SDS011;60540;51.178;6.738;2022-11-13T15:08:45;5.53;;;2.92;;
72517;SDS011;60540;51.178;6.738;2022-11-13T15:13:43;5.10;;;2.65;;
72517;SDS011;60540;51.178;6.738;2022-11-13T15:16:17;6.55;;;3.75;;
72517;SDS011;60540;51.178;6.738;2022-11-13T15:18:48;6.25;;;3.40;;
72517;SDS011;60540;51.178;6.738;2022-11-13T15:21:16;4.65;;;2.53;;
72517;SDS011;60540;51.178;6.738;2022-11-13T15:23:42;5.78;;;3.08;;
72517;SDS011;60540;51.178;6.738;2022-11-13T15:26:11;4.63;;;2.40;;
72517;SDS011;60540;51.178;6.738;2022-11-13T15:28:37;5.40;;;2.80;;
72517;SDS011;60540;51.178;6.738;2022-11-13T15:31:05;5.32;;;2.28;;
72517;SDS011;60540;51.178;6.738;2022-11-13T15:33:41;5.57;;;2.67;;
72517;SDS011;60540;51.178;6.738;2022-11-13T15:36:08;5.05;;;2.58;;
72517;SDS011;60540;51.178;6.738;2022-11-13T15:38:33;5.03;;;2.42;;
72517;SDS011;60540;51.178;6.738;2022-11-13T15:40:59;5.65;;;2.80;;
72517;SDS011;60540;51.178;6.738;2022-11-13T15:43:24;4.68;;;2.58;;
72517;SDS011;60540;51.178;6.738;2022-11-13T15:45:50;5.03;;;3.00;;
72517;SDS011;60540;51.178;6.738;2022-11-13T15:48:16;4.78;;;3.00;;
72517;SDS011;60540;51.178;6.738;2022-11-13T15:50:41;5.63;;;3.10;;
72517;SDS011;60540;51.178;6.738;2022-11-13T15:53:07;5.88;;;2.70;;
72517;SDS011;60540;51.178;6.738;2022-11-13T15:55:36;4.82;;;2.75;;
72517;SDS011;60540;51.178;6.738;2022-11-13T15:58:03;6.30;;;2.95;;
72517;SDS011;60540;51.178;6.738;2022-11-13T16:00:29;6.68;;;2.90;;
72517;SDS011;60540;51.178;6.738;2022-11-13T16:02:55;7.72;;;3.90;;
72517;SDS011;60540;51.178;6.738;2022-11-13T16:05:25;8.75;;;4.05;;
72517;SDS011;60540;51.178;6.738;2022-11-13T16:07:53;10.35;;;4.13;;
72517;SDS011;60540;51.178;6.738;2022-11-13T16:10:20;8.50;;;3.63;;